createdAt,value
2022-11-12T00:04:01.207Z,98368.86
2022-11-12T00:14:23.592Z,98371.36
2022-11-12T00:24:46.076Z,98368.96
2022-11-12T00:35:13.461Z,98380.70
2022-11-12T00:45:36.828Z,98379.02
2022-11-12T00:56:06.966Z,98389.30
2022-11-12T01:06:29.561Z,98383.76
2022-11-12T01:16:52.588Z,98383.67
2022-11-12T01:27:15.583Z,98377.01
2022-11-12T01:37:38.183Z,98372.11
2022-11-12T01:48:02.825Z,98381.39
2022-11-12T01:58:30.132Z,98381.20
2022-11-12T02:08:52.530Z,98380.38
2022-11-12T02:19:17.269Z,98380.50
2022-11-12T02:29:46.765Z,98373.48
2022-11-12T02:40:10.235Z,98373.44
2022-11-12T02:50:33.042Z,98376.67
2022-11-12T03:00:56.704Z,98382.00
2022-11-12T03:11:18.857Z,98373.52
2022-11-12T03:21:41.443Z,98374.64
2022-11-12T03:32:04.046Z,98377.86
2022-11-12T03:42:26.423Z,98376.00
2022-11-12T03:52:52.027Z,98379.29
2022-11-12T04:03:15.005Z,98384.14
2022-11-12T04:13:38.836Z,98381.49
2022-11-12T04:24:01.219Z,98374.86
2022-11-12T04:34:29.676Z,98378.08
2022-11-12T04:44:58.493Z,98371.98
2022-11-12T04:55:20.784Z,98369.30
2022-11-12T05:05:43.474Z,98362.36
2022-11-12T05:16:07.361Z,98367.58
2022-11-12T05:26:30.786Z,98370.09
2022-11-12T05:36:53.317Z,98372.57
2022-11-12T05:47:17.013Z,98379.70
2022-11-12T05:57:39.838Z,98385.62
2022-11-12T06:08:06.018Z,98387.39
2022-11-12T06:18:29.170Z,98397.05
2022-11-12T06:28:53.025Z,98409.44
2022-11-12T06:39:15.747Z,98415.70
2022-11-12T06:49:38.562Z,98420.30
2022-11-12T07:00:01.260Z,98425.61
2022-11-12T07:10:23.588Z,98423.09
2022-11-12T07:20:46.334Z,98427.14
2022-11-12T07:31:12.490Z,98423.16
2022-11-12T07:41:35.213Z,98413.57
2022-11-12T07:51:58.735Z,98409.77
2022-11-12T08:02:21.321Z,98405.60
2022-11-12T08:12:44.261Z,98408.38
2022-11-12T08:23:07.141Z,98408.98
2022-11-12T08:33:30.882Z,98406.69
2022-11-12T08:43:53.930Z,98404.52
2022-11-12T08:54:16.154Z,98408.48
2022-11-12T09:04:39.067Z,98405.67
2022-11-12T09:15:30.842Z,98408.48
2022-11-12T09:25:45.228Z,98401.88
2022-11-12T09:36:09.005Z,98393.59
2022-11-12T09:46:41.798Z,98395.52
2022-11-12T09:57:06.637Z,98390.98
2022-11-12T10:07:37.420Z,98387.10
2022-11-12T10:18:19.326Z,98383.08
2022-11-12T10:29:00.987Z,98368.35
2022-11-12T10:39:46.501Z,98358.98
2022-11-12T10:50:08.796Z,98352.67
2022-11-12T11:00:31.842Z,98348.82
2022-11-12T11:11:21.689Z,98337.99
2022-11-12T11:21:58.838Z,98329.38
2022-11-12T11:32:37.018Z,98328.73
2022-11-12T11:43:22.211Z,98322.05
2022-11-12T11:54:14.189Z,98313.88
2022-11-12T12:04:50.590Z,98304.29
2022-11-12T12:15:38.016Z,98305.77
2022-11-12T12:26:03.502Z,98302.27
2022-11-12T12:36:35.015Z,98292.75
2022-11-12T12:47:01.668Z,98288.00
2022-11-12T12:57:41.391Z,98282.34
2022-11-12T13:08:12.416Z,98282.64
2022-11-12T13:18:41.144Z,98286.33
2022-11-12T13:29:25.199Z,98286.43
2022-11-12T13:39:48.049Z,98287.76
2022-11-12T13:50:17.068Z,98287.91
2022-11-12T14:00:40.677Z,98290.76
2022-11-12T14:11:08.991Z,98289.27
2022-11-12T14:21:31.995Z,98288.20
2022-11-12T14:32:04.163Z,98289.70
2022-11-12T14:42:27.054Z,98284.86
2022-11-12T14:52:56.584Z,98286.77
2022-11-12T15:03:25.248Z,98284.77
2022-11-12T15:13:49.624Z,98283.80
2022-11-12T15:24:11.833Z,98286.41
2022-11-12T15:34:39.861Z,98295.55
2022-11-12T15:45:04.635Z,98300.73
2022-11-12T15:55:27.308Z,98313.02
2022-11-12T16:05:50.307Z,98333.67
2022-11-12T16:16:12.950Z,98341.05
2022-11-12T16:26:36.354Z,98340.73
2022-11-12T16:36:59.836Z,98342.33
2022-11-12T16:47:22.732Z,98348.00
2022-11-12T16:57:45.944Z,98349.92
2022-11-12T17:08:10.519Z,98346.91
2022-11-12T17:18:35.238Z,98352.20
2022-11-12T17:29:06.584Z,98351.04
2022-11-12T17:39:31.380Z,98356.70
2022-11-12T17:49:54.628Z,98365.02
2022-11-12T18:00:17.800Z,98370.14
2022-11-12T18:10:43.821Z,98376.41
2022-11-12T18:21:07.108Z,98374.63
2022-11-12T18:31:30.313Z,98377.95
2022-11-12T18:41:55.850Z,98377.16
2022-11-12T18:52:19.489Z,98378.95
2022-11-12T19:02:44.424Z,98389.06
2022-11-12T19:13:08.000Z,98393.08
2022-11-12T19:23:32.479Z,98392.90
2022-11-12T19:33:56.368Z,98390.31
2022-11-12T19:44:19.348Z,98400.20
2022-11-12T19:54:42.721Z,98413.08
2022-11-12T20:05:09.380Z,98412.02
2022-11-12T20:15:33.661Z,98413.06
2022-11-12T20:26:04.211Z,98414.73
2022-11-12T20:36:28.511Z,98415.86
2022-11-12T20:46:52.105Z,98423.92
2022-11-12T20:57:15.719Z,98417.65
2022-11-12T21:07:39.139Z,98414.40
2022-11-12T21:18:01.939Z,98407.34
2022-11-12T21:28:25.500Z,98408.92
2022-11-12T21:38:49.488Z,98408.02
2022-11-12T21:49:12.377Z,98414.20
2022-11-12T21:59:34.880Z,98408.44
2022-11-12T22:09:57.469Z,98411.21
2022-11-12T22:20:20.467Z,98405.46
2022-11-12T22:30:43.173Z,98402.63
2022-11-12T22:41:10.882Z,98407.92
2022-11-12T22:51:35.549Z,98408.64
2022-11-12T23:01:58.137Z,98398.86
2022-11-12T23:12:26.703Z,98396.97
2022-11-12T23:22:50.552Z,98391.91
2022-11-12T23:33:13.137Z,98390.52
2022-11-12T23:43:35.419Z,98379.44
2022-11-12T23:53:57.764Z,98372.79
